createdAt,value
2016-12-07T00:00:43.424Z,0
2016-12-07T00:01:43.439Z,0
2016-12-07T00:02:43.461Z,0
2016-12-07T00:03:43.481Z,0
2016-12-07T00:04:43.486Z,0
2016-12-07T00:05:58.429Z,0
2016-12-07T00:06:58.441Z,0
2016-12-07T00:07:43.542Z,0
2016-12-07T00:08:43.548Z,0
2016-12-07T00:09:43.568Z,0
2016-12-07T00:10:43.588Z,0
2016-12-07T00:11:43.598Z,0
2016-12-07T00:12:43.622Z,0
2016-12-07T00:13:43.633Z,0
2016-12-07T00:15:43.669Z,0
2016-12-07T00:16:43.679Z,0
2016-12-07T00:17:43.703Z,0
2016-12-07T00:19:43.731Z,0
2016-12-07T00:20:58.668Z,0
2016-12-07T00:21:43.769Z,0
2016-12-07T00:22:58.704Z,0
2016-12-07T00:23:43.793Z,0
2016-12-07T00:24:58.730Z,0
2016-12-07T00:25:43.832Z,0
2016-12-07T00:26:44.148Z,0
2016-12-07T00:27:43.860Z,0
2016-12-07T00:28:43.875Z,0
2016-12-07T00:29:44.192Z,0
2016-12-07T00:30:43.909Z,0
2016-12-07T00:31:43.927Z,0
2016-12-07T00:32:43.944Z,0
2016-12-07T00:33:43.957Z,0
2016-12-07T00:34:43.977Z,0
2016-12-07T00:35:43.998Z,0
2016-12-07T00:36:44.012Z,0
2016-12-07T00:37:58.945Z,0
2016-12-07T00:38:58.988Z,0
2016-12-07T00:39:44.060Z,0
2016-12-07T00:41:44.080Z,0
2016-12-07T00:42:44.100Z,0
2016-12-07T00:44:44.501Z,0
2016-12-07T00:45:44.148Z,0
2016-12-07T00:46:44.171Z,0
2016-12-07T00:47:44.189Z,0
2016-12-07T00:48:44.208Z,0
2016-12-07T00:49:44.223Z,0
2016-12-07T00:50:44.231Z,0
2016-12-07T00:51:44.557Z,0
2016-12-07T00:52:44.270Z,0
2016-12-07T00:53:59.204Z,0
2016-12-07T00:54:44.301Z,0
2016-12-07T00:55:44.329Z,0
2016-12-07T00:56:44.328Z,0
2016-12-07T00:57:59.268Z,0
2016-12-07T00:58:44.371Z,0
2016-12-07T00:59:44.374Z,0
2016-12-07T01:00:44.396Z,0
2016-12-07T01:02:44.429Z,0
2016-12-07T01:03:44.445Z,0
2016-12-07T01:04:44.465Z,0
2016-12-07T01:05:59.406Z,0
2016-12-07T01:06:44.524Z,0
2016-12-07T01:07:59.438Z,0
2016-12-07T01:08:44.529Z,0
2016-12-07T01:09:44.546Z,0
2016-12-07T01:10:44.572Z,0
2016-12-07T01:11:44.570Z,0
2016-12-07T01:12:44.644Z,0
2016-12-07T01:13:59.526Z,0
2016-12-07T01:14:44.651Z,0
2016-12-07T01:15:44.645Z,0
2016-12-07T01:17:44.675Z,0
2016-12-07T01:18:44.702Z,0
2016-12-07T01:19:44.708Z,0
2016-12-07T01:20:44.721Z,0
2016-12-07T01:21:59.664Z,0
2016-12-07T01:23:44.773Z,0
2016-12-07T01:24:44.786Z,0
2016-12-07T01:25:59.720Z,0
2016-12-07T01:26:44.827Z,0
2016-12-07T01:27:44.838Z,0
2016-12-07T01:28:59.769Z,0
2016-12-07T01:29:44.877Z,0
2016-12-07T01:30:44.884Z,0
2016-12-07T01:31:44.906Z,0
2016-12-07T01:32:44.915Z,0
2016-12-07T01:33:44.937Z,0
2016-12-07T01:34:45.099Z,0
2016-12-07T01:35:44.965Z,0
2016-12-07T01:36:44.980Z,0
2016-12-07T01:37:44.993Z,0
2016-12-07T01:38:59.940Z,0
2016-12-07T01:39:45.027Z,0
2016-12-07T01:40:45.342Z,0
2016-12-07T01:41:59.985Z,0
2016-12-07T01:42:45.083Z,0
2016-12-07T01:44:00.014Z,0
2016-12-07T01:44:45.109Z,0
2016-12-07T01:45:45.437Z,0
2016-12-07T01:46:45.150Z,0
2016-12-07T01:47:45.159Z,0
2016-12-07T01:49:45.196Z,0
2016-12-07T01:50:45.201Z,0
2016-12-07T01:51:45.220Z,0
2016-12-07T01:52:45.233Z,0
2016-12-07T01:53:45.259Z,0
2016-12-07T01:54:45.278Z,0
2016-12-07T01:55:45.314Z,0
2016-12-07T01:56:45.296Z,0
2016-12-07T01:58:00.239Z,0
2016-12-07T01:58:45.347Z,0
2016-12-07T02:00:00.268Z,0
2016-12-07T02:00:45.673Z,0
2016-12-07T02:01:45.379Z,0
2016-12-07T02:02:45.398Z,0
2016-12-07T02:03:45.411Z,0
2016-12-07T02:04:45.429Z,0
2016-12-07T02:06:45.462Z,0
2016-12-07T02:07:45.483Z,0
2016-12-07T02:08:45.485Z,0
2016-12-07T02:09:45.511Z,0
2016-12-07T02:10:45.528Z,0
2016-12-07T02:12:00.467Z,0
2016-12-07T02:12:45.559Z,0
2016-12-07T02:14:00.500Z,0
2016-12-07T02:15:00.512Z,0
2016-12-07T02:15:45.604Z,0
2016-12-07T02:16:45.621Z,0
2016-12-07T02:17:45.640Z,0
2016-12-07T02:18:45.654Z,0
2016-12-07T02:19:45.670Z,0
2016-12-07T02:20:45.741Z,0
2016-12-07T02:21:45.701Z,0
2016-12-07T02:22:45.712Z,0
2016-12-07T02:23:45.735Z,0
2016-12-07T02:24:45.749Z,0
2016-12-07T02:25:45.767Z,0
2016-12-07T02:26:45.783Z,0
2016-12-07T02:27:45.804Z,0
2016-12-07T02:29:00.736Z,0
2016-12-07T02:30:00.757Z,0
2016-12-07T02:30:45.903Z,0
2016-12-07T02:32:45.876Z,0
2016-12-07T02:33:45.899Z,0
2016-12-07T02:34:45.920Z,0
2016-12-07T02:35:45.920Z,0
2016-12-07T02:36:45.992Z,0
2016-12-07T02:37:45.962Z,0
2016-12-07T02:39:45.995Z,0
2016-12-07T02:40:46.104Z,0
2016-12-07T02:41:46.029Z,0
2016-12-07T02:42:46.041Z,0
2016-12-07T02:43:46.053Z,0
2016-12-07T02:44:46.082Z,0
2016-12-07T02:45:46.094Z,0
2016-12-07T02:46:46.098Z,0
2016-12-07T02:47:46.119Z,0
2016-12-07T02:48:46.136Z,0
2016-12-07T02:49:46.151Z,0
2016-12-07T02:50:46.465Z,0
2016-12-07T02:51:46.490Z,0
2016-12-07T02:52:46.204Z,0
2016-12-07T02:53:46.221Z,0
2016-12-07T02:54:46.546Z,0
2016-12-07T02:55:46.249Z,0
2016-12-07T02:57:01.189Z,0
2016-12-07T02:57:46.281Z,0
2016-12-07T02:58:46.300Z,0
2016-12-07T03:00:01.235Z,0
2016-12-07T03:01:01.251Z,0
2016-12-07T03:01:46.347Z,0
2016-12-07T03:02:46.358Z,0
2016-12-07T03:03:46.383Z,0
2016-12-07T03:04:46.698Z,0
2016-12-07T03:05:46.437Z,0
2016-12-07T03:06:46.434Z,0
2016-12-07T03:07:46.449Z,0
2016-12-07T03:09:46.476Z,0
2016-12-07T03:14:01.464Z,0
2016-12-07T03:14:46.855Z,0
2016-12-07T03:15:46.575Z,0
2016-12-07T03:17:01.515Z,0
2016-12-07T03:17:46.610Z,0
2016-12-07T03:18:46.624Z,0
2016-12-07T03:19:46.634Z,0
2016-12-07T03:20:46.659Z,0
2016-12-07T03:21:46.665Z,0
2016-12-07T03:22:46.694Z,0
2016-12-07T03:23:46.700Z,0
2016-12-07T03:24:46.719Z,0
2016-12-07T03:25:46.729Z,0
2016-12-07T03:27:01.680Z,0
2016-12-07T03:27:46.768Z,0
2016-12-07T03:28:46.783Z,0
2016-12-07T03:29:46.804Z,0
2016-12-07T03:30:46.813Z,0
2016-12-07T03:31:46.831Z,0
2016-12-07T03:33:01.771Z,0
2016-12-07T03:33:46.867Z,0
2016-12-07T03:35:46.895Z,0
2016-12-07T03:39:10.340Z,0
2016-12-07T03:39:19.070Z,0
2016-12-07T03:40:18.938Z,0
2016-12-07T03:41:18.958Z,0
2016-12-07T03:42:18.973Z,0
2016-12-07T03:43:18.989Z,0
2016-12-07T03:44:19.009Z,0
2016-12-07T03:45:33.944Z,0
2016-12-07T03:46:33.956Z,0
2016-12-07T03:48:34.038Z,0
2016-12-07T03:49:19.086Z,0
2016-12-07T03:50:19.102Z,0
2016-12-07T03:51:19.122Z,0
2016-12-07T03:52:19.131Z,0
2016-12-07T03:53:19.250Z,0
2016-12-07T03:54:19.166Z,0
2016-12-07T03:55:19.186Z,0
2016-12-07T03:57:34.140Z,0
2016-12-07T03:58:19.228Z,0
2016-12-07T03:59:19.246Z,0
2016-12-07T04:00:19.257Z,0
2016-12-07T04:02:19.299Z,0
2016-12-07T04:04:19.328Z,0
2016-12-07T04:05:19.343Z,0
2016-12-07T04:06:19.357Z,0
2016-12-07T04:07:19.381Z,0
2016-12-07T04:09:19.463Z,0
2016-12-07T04:10:19.428Z,0
2016-12-07T04:11:19.443Z,0
2016-12-07T04:12:19.484Z,0
2016-12-07T04:14:19.806Z,0
2016-12-07T04:15:19.512Z,0
2016-12-07T04:16:19.516Z,0
2016-12-07T04:17:19.540Z,0
2016-12-07T04:18:19.552Z,0
2016-12-07T04:19:19.574Z,0
2016-12-07T04:20:19.586Z,0
2016-12-07T04:21:19.701Z,0
2016-12-07T04:22:19.616Z,0
2016-12-07T04:23:19.633Z,0
2016-12-07T04:25:19.673Z,0
2016-12-07T04:26:19.682Z,0
2016-12-07T04:27:19.700Z,0
2016-12-07T04:28:19.722Z,0
2016-12-07T04:29:19.761Z,0
2016-12-07T04:30:34.670Z,0
2016-12-07T04:32:34.702Z,0
2016-12-07T04:33:34.715Z,0
2016-12-07T04:34:34.733Z,0
2016-12-07T04:35:34.752Z,0
2016-12-07T04:36:19.847Z,0
2016-12-07T04:37:19.857Z,0
2016-12-07T04:38:19.875Z,0
2016-12-07T04:40:19.908Z,0
2016-12-07T04:41:19.925Z,0
2016-12-07T04:42:19.938Z,0
2016-12-07T04:43:19.955Z,0
2016-12-07T04:44:19.967Z,0
2016-12-07T04:45:19.985Z,0
2016-12-07T04:46:34.925Z,0
2016-12-07T04:47:20.020Z,0
2016-12-07T04:48:20.033Z,0
2016-12-07T04:49:34.973Z,0
2016-12-07T04:50:20.071Z,0
2016-12-07T04:51:35.005Z,0
2016-12-07T04:52:20.103Z,0
2016-12-07T04:53:20.123Z,0
2016-12-07T04:54:20.128Z,0
2016-12-07T04:55:20.457Z,0
2016-12-07T04:56:20.162Z,0
2016-12-07T04:57:20.213Z,0
2016-12-07T04:58:20.201Z,0
2016-12-07T04:59:20.219Z,0
2016-12-07T05:00:20.226Z,0
2016-12-07T05:01:20.242Z,0
2016-12-07T05:02:20.254Z,0
2016-12-07T05:03:35.199Z,0
2016-12-07T05:04:20.296Z,0
2016-12-07T05:05:20.312Z,0
2016-12-07T05:06:20.323Z,0
2016-12-07T05:08:20.658Z,0
2016-12-07T05:09:20.367Z,0
2016-12-07T05:10:20.435Z,0
2016-12-07T05:11:20.409Z,0
2016-12-07T05:13:20.448Z,0
2016-12-07T05:14:20.447Z,0
2016-12-07T05:15:20.518Z,0
2016-12-07T05:16:20.513Z,0
2016-12-07T05:17:20.545Z,0
2016-12-07T05:18:20.513Z,0
2016-12-07T05:19:20.529Z,0
2016-12-07T05:20:35.469Z,0
2016-12-07T05:21:20.564Z,0
2016-12-07T05:22:20.575Z,0
2016-12-07T05:23:35.513Z,0
2016-12-07T05:24:20.610Z,0
2016-12-07T05:25:20.636Z,0
2016-12-07T05:28:20.675Z,0
2016-12-07T05:29:20.686Z,0
2016-12-07T05:30:20.702Z,0
2016-12-07T05:31:20.720Z,0
2016-12-07T05:32:20.733Z,0
2016-12-07T05:33:20.755Z,0
2016-12-07T05:34:20.768Z,0
2016-12-07T05:35:20.781Z,0
2016-12-07T05:36:20.814Z,0
2016-12-07T05:37:20.816Z,0
2016-12-07T05:38:35.756Z,0
2016-12-07T05:40:20.861Z,0
2016-12-07T05:42:20.899Z,0
2016-12-07T05:43:20.915Z,0
2016-12-07T05:44:20.930Z,0
2016-12-07T05:45:20.944Z,0
2016-12-07T05:46:20.968Z,0
2016-12-07T05:47:20.982Z,0
2016-12-07T05:48:20.989Z,0
2016-12-07T05:49:21.008Z,0
2016-12-07T05:50:21.020Z,0
2016-12-07T05:51:35.967Z,0
2016-12-07T05:52:21.056Z,0
2016-12-07T05:53:21.080Z,0
2016-12-07T05:54:21.089Z,0
2016-12-07T05:55:21.105Z,0
2016-12-07T05:56:21.117Z,0
2016-12-07T05:58:21.155Z,0
2016-12-07T05:59:21.175Z,0
2016-12-07T06:00:21.182Z,0
2016-12-07T06:01:21.196Z,0
2016-12-07T06:02:21.267Z,0
2016-12-07T06:03:21.234Z,0
2016-12-07T06:04:21.250Z,0
2016-12-07T06:05:36.185Z,0
2016-12-07T06:06:36.201Z,0
2016-12-07T06:07:36.217Z,0
2016-12-07T06:08:21.313Z,0
2016-12-07T06:09:21.328Z,0
2016-12-07T06:10:36.259Z,0
2016-12-07T06:11:21.356Z,0
2016-12-07T06:12:21.375Z,0
2016-12-07T06:13:21.414Z,0
2016-12-07T06:14:21.403Z,0
2016-12-07T06:15:21.426Z,0
2016-12-07T06:16:21.440Z,0
2016-12-07T06:17:21.451Z,0
2016-12-07T06:18:21.470Z,0
2016-12-07T06:19:36.410Z,0
2016-12-07T06:21:21.516Z,0
2016-12-07T06:22:21.537Z,0
2016-12-07T06:23:21.550Z,0
2016-12-07T06:24:21.567Z,0
2016-12-07T06:25:21.591Z,4
2016-12-07T06:26:36.520Z,0
2016-12-07T06:27:21.923Z,0
2016-12-07T06:28:21.629Z,0
2016-12-07T06:29:21.644Z,4
2016-12-07T06:31:21.674Z,4
2016-12-07T06:32:21.699Z,4
2016-12-07T06:33:21.716Z,8
2016-12-07T06:34:21.756Z,8
2016-12-07T06:35:21.738Z,8
2016-12-07T06:36:21.754Z,8
2016-12-07T06:37:22.079Z,12
2016-12-07T06:38:36.708Z,8
2016-12-07T06:39:21.800Z,12
2016-12-07T06:40:21.816Z,12
2016-12-07T06:41:21.834Z,12
2016-12-07T06:43:36.783Z,20
2016-12-07T06:44:21.899Z,24
2016-12-07T06:45:21.896Z,24
2016-12-07T06:46:22.224Z,28
2016-12-07T06:48:21.948Z,44
2016-12-07T06:49:21.964Z,56
2016-12-07T06:50:21.979Z,60
2016-12-07T06:51:21.997Z,68
2016-12-07T06:52:22.007Z,80
2016-12-07T06:53:22.025Z,84
2016-12-07T06:54:22.035Z,92
2016-12-07T06:55:22.056Z,100
2016-12-07T06:56:22.073Z,104
2016-12-07T06:57:22.086Z,108
2016-12-07T06:58:37.026Z,116
2016-12-07T06:59:37.036Z,124
2016-12-07T07:00:22.132Z,128
2016-12-07T07:01:22.146Z,136
2016-12-07T07:02:22.183Z,148
2016-12-07T07:03:22.186Z,160
2016-12-07T07:05:22.216Z,188
2016-12-07T07:06:22.231Z,208
2016-12-07T07:08:22.256Z,244
2016-12-07T07:09:22.279Z,260
2016-12-07T07:10:22.288Z,280
2016-12-07T07:11:22.309Z,300
2016-12-07T07:12:37.246Z,324
2016-12-07T07:13:37.258Z,336
2016-12-07T07:14:37.275Z,360
2016-12-07T07:15:22.369Z,380
2016-12-07T07:16:22.389Z,392
2016-12-07T07:17:22.395Z,392
2016-12-07T07:18:22.416Z,380
2016-12-07T07:19:22.430Z,380
2016-12-07T07:20:22.453Z,392
2016-12-07T07:21:22.465Z,408
2016-12-07T07:22:22.481Z,428
2016-12-07T07:23:22.492Z,444
2016-12-07T07:25:22.529Z,464
2016-12-07T07:26:22.542Z,476
2016-12-07T07:27:22.560Z,488
2016-12-07T07:28:22.579Z,492
2016-12-07T07:29:22.590Z,508
2016-12-07T07:30:22.605Z,520
2016-12-07T07:31:22.622Z,532
2016-12-07T07:32:22.638Z,544
2016-12-07T07:33:22.656Z,560
2016-12-07T07:34:22.668Z,564
2016-12-07T07:35:22.686Z,564
2016-12-07T07:36:22.706Z,564
2016-12-07T07:37:22.712Z,560
2016-12-07T07:38:22.728Z,552
2016-12-07T07:39:22.749Z,540
2016-12-07T07:40:22.759Z,536
2016-12-07T07:41:22.776Z,528
2016-12-07T07:43:22.806Z,512
2016-12-07T07:44:22.825Z,512
2016-12-07T07:45:37.797Z,512
2016-12-07T07:46:22.857Z,516
2016-12-07T07:47:37.792Z,520
2016-12-07T07:48:22.889Z,528
2016-12-07T07:49:22.903Z,540
2016-12-07T07:50:22.923Z,552
2016-12-07T07:52:22.953Z,576
2016-12-07T07:53:22.969Z,596
2016-12-07T07:54:22.978Z,616
2016-12-07T07:55:22.998Z,644
2016-12-07T07:56:23.010Z,676
2016-12-07T07:57:23.024Z,708
2016-12-07T07:58:23.056Z,744
2016-12-07T07:59:23.057Z,788
2016-12-07T08:00:23.083Z,828
2016-12-07T08:01:38.013Z,888
2016-12-07T08:02:38.028Z,936
2016-12-07T08:03:23.125Z,972
2016-12-07T08:04:23.135Z,1028
2016-12-07T08:05:23.147Z,1084
2016-12-07T08:07:23.182Z,1176
2016-12-07T08:08:23.202Z,1216
2016-12-07T08:09:23.229Z,1256
2016-12-07T08:10:23.545Z,1288
2016-12-07T08:11:23.246Z,1328
2016-12-07T08:12:23.272Z,1372
2016-12-07T08:13:23.281Z,1408
2016-12-07T08:14:38.220Z,1460
2016-12-07T08:15:38.233Z,1496
2016-12-07T08:16:38.283Z,1532
2016-12-07T08:17:38.264Z,1552
2016-12-07T08:18:38.280Z,1580
2016-12-07T08:19:23.374Z,1600
2016-12-07T08:20:23.447Z,1624
2016-12-07T08:21:23.417Z,1648
2016-12-07T08:22:23.427Z,1664
2016-12-07T08:23:23.442Z,1696
2016-12-07T08:24:23.458Z,1732
2016-12-07T08:25:23.476Z,1776
2016-12-07T08:26:23.484Z,1828
2016-12-07T08:27:23.505Z,1892
2016-12-07T08:28:23.518Z,1980
2016-12-07T08:29:23.536Z,2064
2016-12-07T08:30:23.549Z,2140
2016-12-07T08:31:23.564Z,2184
2016-12-07T08:32:38.507Z,2236
2016-12-07T08:33:38.520Z,2272
2016-12-07T08:34:23.623Z,2288
2016-12-07T08:35:23.632Z,2308
2016-12-07T08:36:23.641Z,2336
2016-12-07T08:37:23.670Z,2360
2016-12-07T08:38:23.682Z,2408
2016-12-07T08:39:23.687Z,2452
2016-12-07T08:40:23.710Z,2508
2016-12-07T08:41:23.745Z,2560
2016-12-07T08:42:23.745Z,2604
2016-12-07T08:43:23.759Z,2660
2016-12-07T08:44:23.779Z,2688
2016-12-07T08:45:23.788Z,2708
2016-12-07T08:46:38.779Z,2704
2016-12-07T08:47:24.135Z,2680
2016-12-07T08:48:38.759Z,2656
2016-12-07T08:49:23.849Z,2640
2016-12-07T08:50:23.872Z,2604
2016-12-07T08:51:23.887Z,2624
2016-12-07T08:53:23.922Z,2776
2016-12-07T08:54:23.933Z,2888
2016-12-07T08:55:23.942Z,3028
2016-12-07T08:56:23.975Z,3212
2016-12-07T08:57:24.008Z,3284
2016-12-07T08:58:24.004Z,3352
2016-12-07T08:59:24.015Z,3456
2016-12-07T09:00:24.033Z,3552
2016-12-07T09:01:38.972Z,3628
2016-12-07T09:02:38.987Z,3696
2016-12-07T09:03:24.118Z,3784
2016-12-07T09:04:24.098Z,3824
2016-12-07T09:05:39.035Z,3900
2016-12-07T09:07:24.148Z,3952
2016-12-07T09:08:24.189Z,4024
2016-12-07T09:09:24.184Z,3968
2016-12-07T09:10:24.203Z,4124
2016-12-07T09:11:24.217Z,4192
2016-12-07T09:12:24.231Z,4420
2016-12-07T09:13:24.249Z,4356
2016-12-07T09:14:24.262Z,4520
2016-12-07T09:15:24.283Z,4852
2016-12-07T09:16:39.218Z,5200
2016-12-07T09:17:39.232Z,5248
2016-12-07T09:18:24.332Z,5504
2016-12-07T09:19:24.347Z,5420
2016-12-07T09:20:39.288Z,5496
2016-12-07T09:21:24.378Z,5188
2016-12-07T09:22:24.400Z,5216
2016-12-07T09:23:39.326Z,4808
2016-12-07T09:24:24.434Z,5048
2016-12-07T09:25:24.447Z,5612
2016-12-07T09:26:24.459Z,5288
2016-12-07T09:27:24.530Z,5288
2016-12-07T09:28:24.499Z,5200
2016-12-07T09:29:24.512Z,4860
2016-12-07T09:30:24.552Z,4556
2016-12-07T09:31:39.473Z,4352
2016-12-07T09:32:24.608Z,4252
2016-12-07T09:33:24.580Z,4212
2016-12-07T09:34:24.593Z,4112
2016-12-07T09:35:24.635Z,4096
2016-12-07T09:36:39.558Z,4136
2016-12-07T09:37:24.645Z,4112
2016-12-07T09:38:39.582Z,4028
2016-12-07T09:39:39.605Z,3976
2016-12-07T09:40:24.700Z,4052
2016-12-07T09:41:24.709Z,3968
2016-12-07T09:42:24.729Z,3876
2016-12-07T09:43:24.746Z,3852
2016-12-07T09:44:24.757Z,3888
2016-12-07T09:45:24.784Z,3944
2016-12-07T09:46:24.797Z,3980
2016-12-07T09:47:24.865Z,3952
2016-12-07T09:48:39.755Z,3760
2016-12-07T09:49:24.849Z,3688
2016-12-07T09:50:24.863Z,3664
2016-12-07T09:51:24.905Z,3740
2016-12-07T09:53:24.917Z,3692
2016-12-07T09:54:24.939Z,3624
2016-12-07T09:55:24.952Z,3636
2016-12-07T09:57:39.919Z,3984
2016-12-07T09:58:24.995Z,4040
2016-12-07T09:59:25.053Z,3888
2016-12-07T10:00:25.029Z,3944
2016-12-07T10:01:25.054Z,4316
2016-12-07T10:03:25.081Z,3900
2016-12-07T10:04:25.342Z,4104
2016-12-07T10:05:40.041Z,3908
2016-12-07T10:06:25.137Z,3944
2016-12-07T10:07:25.148Z,4144
2016-12-07T10:08:40.093Z,4144
2016-12-07T10:09:25.185Z,4196
2016-12-07T10:10:25.205Z,4136
2016-12-07T10:11:25.220Z,4424
2016-12-07T10:12:40.154Z,4772
2016-12-07T10:13:25.262Z,4512
2016-12-07T10:14:25.272Z,4384
2016-12-07T10:15:25.292Z,4476
2016-12-07T10:16:25.309Z,4596
2016-12-07T10:17:25.318Z,4500
2016-12-07T10:18:25.334Z,4712
2016-12-07T10:19:25.382Z,4716
2016-12-07T10:20:25.375Z,4540
2016-12-07T10:21:40.311Z,4376
2016-12-07T10:22:40.655Z,4352
2016-12-07T10:23:40.347Z,4460
2016-12-07T10:24:25.475Z,4452
2016-12-07T10:25:25.461Z,4476
2016-12-07T10:26:25.475Z,4544
2016-12-07T10:27:25.804Z,4604
2016-12-07T10:28:25.518Z,4448
2016-12-07T10:29:25.824Z,4484
2016-12-07T10:30:25.540Z,4836
2016-12-07T10:32:25.583Z,4396
2016-12-07T10:33:25.593Z,5092
2016-12-07T10:34:25.604Z,4808
2016-12-07T10:35:40.553Z,4396
2016-12-07T10:36:25.648Z,4336
2016-12-07T10:37:25.660Z,4484
2016-12-07T10:38:25.682Z,4596
2016-12-07T10:40:25.710Z,4264
2016-12-07T10:41:25.731Z,4300
2016-12-07T10:42:25.747Z,4300
2016-12-07T10:43:25.765Z,4260
2016-12-07T10:45:26.116Z,4172
2016-12-07T10:46:25.810Z,4196
2016-12-07T10:47:25.829Z,4016
2016-12-07T10:48:25.846Z,3904
2016-12-07T10:49:25.873Z,3940
2016-12-07T10:50:25.884Z,3872
2016-12-07T10:51:40.971Z,3904
2016-12-07T10:52:40.843Z,3928
2016-12-07T10:53:40.858Z,3940
2016-12-07T10:54:25.955Z,4008
2016-12-07T10:55:40.898Z,3924
2016-12-07T10:57:26.001Z,3904
2016-12-07T10:58:40.940Z,3976
2016-12-07T10:59:26.034Z,3824
2016-12-07T11:00:26.058Z,3760
2016-12-07T11:01:26.071Z,3848
2016-12-07T11:02:26.085Z,3828
2016-12-07T11:04:26.121Z,3868
2016-12-07T11:05:26.143Z,3832
2016-12-07T11:06:26.161Z,3852
2016-12-07T11:07:26.173Z,3704
2016-12-07T11:08:26.199Z,3704
2016-12-07T11:10:26.224Z,3608
2016-12-07T11:11:41.163Z,3720
2016-12-07T11:12:26.265Z,3712
2016-12-07T11:13:41.243Z,3768
2016-12-07T11:14:26.292Z,3756
2016-12-07T11:15:26.610Z,3744
2016-12-07T11:16:26.322Z,3732
2016-12-07T11:17:26.348Z,3712
2016-12-07T11:18:26.362Z,3724
2016-12-07T11:19:26.684Z,3628
2016-12-07T11:20:26.392Z,4032
2016-12-07T11:21:26.421Z,3892
2016-12-07T11:22:26.428Z,3756
2016-12-07T11:23:41.406Z,3904
2016-12-07T11:24:41.689Z,3772
2016-12-07T11:25:26.483Z,3920
2016-12-07T11:26:26.500Z,3808
2016-12-07T11:27:41.440Z,3804
2016-12-07T11:28:26.532Z,3864
2016-12-07T11:29:26.556Z,3760
2016-12-07T11:30:26.570Z,3608
2016-12-07T11:31:26.891Z,3492
2016-12-07T11:32:26.598Z,3324
2016-12-07T11:33:26.633Z,3216
2016-12-07T11:34:26.635Z,3180
2016-12-07T11:35:26.656Z,3088
2016-12-07T11:36:26.664Z,3068
2016-12-07T11:37:26.689Z,3124
2016-12-07T11:38:26.701Z,3232
2016-12-07T11:39:26.735Z,3368
2016-12-07T11:40:26.737Z,3480
2016-12-07T11:41:26.761Z,3580
2016-12-07T11:43:41.714Z,3680
2016-12-07T11:44:26.811Z,3692
2016-12-07T11:45:26.829Z,3676
2016-12-07T11:46:26.838Z,3644
2016-12-07T11:47:26.862Z,3604
2016-12-07T11:49:26.887Z,3564
2016-12-07T11:50:26.914Z,3576
2016-12-07T11:51:26.921Z,3604
2016-12-07T11:52:26.937Z,3616
2016-12-07T11:53:26.964Z,3628
2016-12-07T11:54:27.275Z,3636
2016-12-07T11:55:26.992Z,3648
2016-12-07T11:56:27.019Z,3656
2016-12-07T11:58:41.970Z,3640
2016-12-07T11:59:27.068Z,3684
2016-12-07T12:02:27.119Z,4100
2016-12-07T12:03:27.142Z,3912
2016-12-07T12:04:27.151Z,3840
2016-12-07T12:05:42.103Z,3780
2016-12-07T12:06:27.187Z,3672
2016-12-07T12:08:27.231Z,3452
2016-12-07T12:10:27.258Z,3252
2016-12-07T12:11:27.278Z,3284
2016-12-07T12:12:42.522Z,3284
2016-12-07T12:13:27.312Z,3288
2016-12-07T12:14:42.247Z,3380
2016-12-07T12:15:27.342Z,3464
2016-12-07T12:16:27.365Z,3556
2016-12-07T12:17:27.379Z,3608
2016-12-07T12:18:27.400Z,3736
2016-12-07T12:19:27.422Z,3812
2016-12-07T12:20:27.439Z,3932
2016-12-07T12:21:27.446Z,4040
2016-12-07T12:22:27.470Z,4140
2016-12-07T12:23:27.487Z,4280
2016-12-07T12:24:27.529Z,4312
2016-12-07T12:25:27.523Z,4308
2016-12-07T12:26:27.540Z,4392
2016-12-07T12:27:27.551Z,4452
2016-12-07T12:28:27.575Z,4456
2016-12-07T12:29:27.588Z,4416
2016-12-07T12:30:42.533Z,4320
2016-12-07T12:31:27.630Z,4308
2016-12-07T12:32:27.646Z,4316
2016-12-07T12:33:27.665Z,4292
2016-12-07T12:34:27.682Z,4308
2016-12-07T12:35:27.699Z,4292
2016-12-07T12:36:27.716Z,4280
2016-12-07T12:37:27.739Z,4004
2016-12-07T12:38:27.754Z,3508
2016-12-07T12:39:27.771Z,3404
2016-12-07T12:40:27.788Z,3288
2016-12-07T12:41:27.812Z,3300
2016-12-07T12:42:27.820Z,3032
2016-12-07T12:43:27.851Z,2752
2016-12-07T12:45:27.880Z,2472
2016-12-07T12:46:42.821Z,2368
2016-12-07T12:47:27.926Z,2332
2016-12-07T12:48:27.928Z,2280
2016-12-07T12:49:27.946Z,2224
2016-12-07T12:50:27.966Z,2160
2016-12-07T12:51:27.983Z,2100
2016-12-07T12:52:28.006Z,2036
2016-12-07T12:53:28.036Z,1980
2016-12-07T12:54:28.088Z,1932
2016-12-07T12:55:42.983Z,1888
2016-12-07T12:56:28.070Z,1864
2016-12-07T12:57:28.111Z,1840
2016-12-07T12:58:28.114Z,1836
2016-12-07T12:59:28.488Z,1856
2016-12-07T13:00:28.444Z,1892
2016-12-07T13:01:28.168Z,1936
2016-12-07T13:02:43.102Z,1964
2016-12-07T13:03:28.210Z,1992
2016-12-07T13:04:28.215Z,2072
2016-12-07T13:07:28.264Z,2344
2016-12-07T13:09:28.310Z,2420
2016-12-07T13:10:28.330Z,2408
2016-12-07T13:11:28.353Z,2416
2016-12-07T13:12:28.355Z,2440
2016-12-07T13:13:28.383Z,2428
2016-12-07T13:14:28.393Z,2372
2016-12-07T13:15:28.410Z,2332
2016-12-07T13:16:28.428Z,2300
2016-12-07T13:17:28.448Z,2264
2016-12-07T13:18:43.384Z,2196
2016-12-07T13:19:43.427Z,2136
2016-12-07T13:20:28.507Z,2064
2016-12-07T13:21:28.525Z,2004
2016-12-07T13:22:28.534Z,1992
2016-12-07T13:23:28.556Z,1976
2016-12-07T13:24:28.877Z,1948
2016-12-07T13:25:28.584Z,1908
2016-12-07T13:26:28.604Z,1848
2016-12-07T13:27:28.629Z,1768
2016-12-07T13:28:28.641Z,1668
2016-12-07T13:29:28.666Z,1568
2016-12-07T13:31:28.704Z,1356
2016-12-07T13:32:28.714Z,1272
2016-12-07T13:33:43.651Z,1180
2016-12-07T13:34:43.674Z,1116
2016-12-07T13:35:28.772Z,1076
2016-12-07T13:36:28.786Z,1020
2016-12-07T13:37:28.803Z,968
2016-12-07T13:38:28.825Z,924
2016-12-07T13:39:28.840Z,880
2016-12-07T13:40:28.856Z,844
2016-12-07T13:41:28.881Z,812
2016-12-07T13:42:28.889Z,792
2016-12-07T13:43:28.916Z,776
2016-12-07T13:44:28.919Z,772
2016-12-07T13:45:28.945Z,776
2016-12-07T13:46:28.965Z,780
2016-12-07T13:47:28.983Z,784
2016-12-07T13:48:29.002Z,776
2016-12-07T13:49:43.941Z,764
2016-12-07T13:50:29.034Z,760
2016-12-07T13:51:29.086Z,752
2016-12-07T13:52:29.074Z,736
2016-12-07T13:53:29.085Z,716
2016-12-07T13:54:29.157Z,704
2016-12-07T13:55:29.124Z,688
2016-12-07T13:56:44.118Z,664
2016-12-07T13:57:29.157Z,644
2016-12-07T13:59:29.188Z,560
2016-12-07T14:00:29.209Z,536
2016-12-07T14:01:29.230Z,516
2016-12-07T14:02:29.243Z,504
2016-12-07T14:03:29.267Z,496
2016-12-07T14:04:29.583Z,492
2016-12-07T14:05:44.224Z,488
2016-12-07T14:06:29.324Z,488
2016-12-07T14:07:44.556Z,492
2016-12-07T14:08:44.265Z,500
2016-12-07T14:09:44.315Z,512
2016-12-07T14:10:29.381Z,516
2016-12-07T14:11:29.401Z,524
2016-12-07T14:12:29.412Z,528
2016-12-07T14:13:29.430Z,532
2016-12-07T14:14:29.453Z,540
2016-12-07T14:15:29.472Z,544
2016-12-07T14:16:29.489Z,544
2016-12-07T14:17:29.510Z,540
2016-12-07T14:18:29.532Z,528
2016-12-07T14:19:44.510Z,516
2016-12-07T14:20:29.558Z,504
2016-12-07T14:21:44.493Z,484
2016-12-07T14:22:29.594Z,472
2016-12-07T14:23:29.607Z,452
2016-12-07T14:24:29.637Z,432
2016-12-07T14:25:29.642Z,416
2016-12-07T14:26:29.656Z,392
2016-12-07T14:27:29.671Z,372
2016-12-07T14:29:29.709Z,324
2016-12-07T14:32:29.763Z,264
2016-12-07T14:33:44.707Z,244
2016-12-07T14:34:30.095Z,232
2016-12-07T14:35:30.214Z,212
2016-12-07T14:36:29.839Z,196
2016-12-07T14:37:44.778Z,180
2016-12-07T14:38:29.858Z,172
2016-12-07T14:39:29.887Z,160
2016-12-07T14:40:29.903Z,152
2016-12-07T14:41:29.921Z,144
2016-12-07T14:42:29.966Z,132
2016-12-07T14:43:29.958Z,124
2016-12-07T14:44:29.972Z,116
2016-12-07T14:45:29.984Z,108
2016-12-07T14:46:30.006Z,100
2016-12-07T14:47:30.022Z,92
2016-12-07T14:48:30.042Z,84
2016-12-07T14:49:30.052Z,80
2016-12-07T14:50:30.077Z,72
2016-12-07T14:51:30.093Z,64
2016-12-07T14:52:30.104Z,60
2016-12-07T14:53:45.046Z,48
2016-12-07T14:54:30.156Z,44
2016-12-07T14:55:30.169Z,40
2016-12-07T14:56:30.186Z,36
2016-12-07T14:57:30.194Z,32
2016-12-07T14:58:30.213Z,28
2016-12-07T15:00:30.244Z,24
2016-12-07T15:01:30.255Z,24
2016-12-07T15:02:30.278Z,24
2016-12-07T15:03:30.292Z,24
2016-12-07T15:04:30.315Z,20
2016-12-07T15:06:45.272Z,16
2016-12-07T15:07:30.363Z,16
2016-12-07T15:08:45.301Z,16
2016-12-07T15:09:30.403Z,12
2016-12-07T15:10:30.426Z,12
2016-12-07T15:11:45.350Z,8
2016-12-07T15:12:30.450Z,4
2016-12-07T15:13:30.472Z,4
2016-12-07T15:14:30.491Z,8